Time;durP1;ratioP1;P1;durP2;ratioP2;P2;SDS_P1;SDS_P2;PMS_P1;PMS_P2;Temp;Humidity;BMP_temperature;BMP_pressure;BME280_temperature;BME280_humidity;BME280_pressure;Samples;Min_cycle;Max_cycle;Signal;HPM_P1;HPM_P2
2021/03/30 00:00:08;;;;;;;4.55;2.90;;;;;;;13.96;46.59;102418.69;693761;28;21555;-53
2021/03/30 00:00:29;;;;;;;4.18;2.85;;;;;;;13.95;46.97;102417.84;692222;28;67588;-57
2021/03/30 00:00:51;;;;;;;3.35;2.78;;;;;;;13.94;46.83;102418.84;693252;28;22396;-55
2021/03/30 00:01:13;;;;;;;4.38;3.00;;;;;;;13.95;46.68;102422.38;692583;28;46270;-54
2021/03/30 00:01:34;;;;;;;4.82;3.00;;;;;;;13.94;46.51;102421.53;692896;28;22402;-56
2021/03/30 00:01:55;;;;;;;3.13;2.72;;;;;;;13.95;46.63;102417.84;694169;28;16756;-55
2021/03/30 00:02:16;;;;;;;3.67;2.80;;;;;;;13.95;46.99;102423.25;693305;28;22487;-58
2021/03/30 00:02:38;;;;;;;4.43;2.97;;;;;;;13.96;46.92;102422.22;692917;28;46411;-56
2021/03/30 00:02:59;;;;;;;5.00;3.08;;;;;;;13.96;46.68;102419.50;693057;28;21475;-54
2021/03/30 00:03:20;;;;;;;3.72;3.03;;;;;;;13.95;46.49;102417.84;693282;28;22226;-54
2021/03/30 00:03:42;;;;;;;3.13;2.80;;;;;;;13.96;46.61;102418.69;693393;28;21559;-51
2021/03/30 00:04:04;;;;;;;3.72;3.03;;;;;;;13.97;46.83;102418.50;688748;28;37197;-57
2021/03/30 00:04:25;;;;;;;4.15;2.85;;;;;;;13.95;46.81;102419.69;689358;28;36402;-55
2021/03/30 00:04:46;;;;;;;4.05;2.70;;;;;;;13.95;46.85;102414.25;691031;28;22618;-54
2021/03/30 00:05:08;;;;;;;4.82;2.88;;;;;;;13.94;46.51;102420.72;693550;28;16017;-58
2021/03/30 00:05:29;;;;;;;4.20;3.15;;;;;;;13.94;46.74;102420.72;691695;28;46437;-55
2021/03/30 00:05:51;;;;;;;3.58;3.22;;;;;;;13.94;46.86;102420.72;691610;28;31208;-53
2021/03/30 00:06:12;;;;;;;3.83;3.00;;;;;;;13.93;46.81;102421.72;693482;28;23508;-55
2021/03/30 00:06:33;;;;;;;3.85;2.97;;;;;;;13.92;46.63;102420.88;692136;28;23463;-52
2021/03/30 00:06:55;;;;;;;4.43;2.92;;;;;;;13.93;46.87;102424.41;694138;28;929;-56
2021/03/30 00:07:17;;;;;;;3.90;2.80;;;;;;;13.91;46.82;102416.44;693750;28;1775;-56
2021/03/30 00:07:38;;;;;;;4.28;2.80;;;;;;;13.90;46.90;102420.16;693617;28;22750;-56
2021/03/30 00:07:59;;;;;;;5.25;2.95;;;;;;;13.88;46.73;102423.03;693549;28;22391;-54
2021/03/30 00:08:21;;;;;;;5.90;3.13;;;;;;;13.88;46.97;102419.47;693203;28;21527;-56
2021/03/30 00:08:42;;;;;;;3.85;3.03;;;;;;;13.87;46.80;102418.63;692689;28;42571;-56
2021/03/30 00:09:08;;;;;;;4.10;3.00;;;;;;;13.88;46.60;102419.47;693776;28;1919;-57
2021/03/30 00:09:30;;;;;;;5.03;3.08;;;;;;;13.87;46.55;102423.19;694028;28;15340;-57
2021/03/30 00:10:01;;;;;;;3.83;2.85;;;;;;;13.85;47.03;102420.63;691763;28;61439;-54
2021/03/30 00:10:24;;;;;;;3.83;2.75;;;;;;;13.85;46.68;102419.78;692506;28;46466;-55
2021/03/30 00:10:48;;;;;;;3.13;2.80;;;;;;;13.81;46.61;102419.25;691491;28;63507;-57
2021/03/30 00:11:09;;;;;;;3.17;2.78;;;;;;;13.84;47.03;102418.94;691446;28;93219;-55
2021/03/30 00:11:30;;;;;;;3.72;2.67;;;;;;;13.81;46.62;102421.13;692853;28;43735;-57
2021/03/30 00:11:51;;;;;;;5.22;3.00;;;;;;;13.80;46.52;102414.81;692648;28;23532;-56
2021/03/30 00:12:13;;;;;;;3.17;2.88;;;;;;;13.80;46.95;102419.41;693860;28;1693;-56
2021/03/30 00:12:34;;;;;;;3.13;2.83;;;;;;;13.79;46.85;102417.69;693224;28;24661;-55
2021/03/30 00:12:55;;;;;;;4.75;2.88;;;;;;;13.77;46.85;102422.44;693414;28;22411;-56
2021/03/30 00:13:16;;;;;;;4.07;3.00;;;;;;;13.75;46.76;102417.16;692454;28;45219;-56
2021/03/30 00:13:37;;;;;;;3.67;3.00;;;;;;;13.75;46.61;102413.59;694104;28;14967;-57
2021/03/30 00:13:58;;;;;;;4.03;2.90;;;;;;;13.74;47.17;102417.31;693023;28;21526;-56
2021/03/30 00:14:20;;;;;;;3.65;3.00;;;;;;;13.73;46.76;102418.31;693457;28;21528;-56
2021/03/30 00:14:41;;;;;;;3.15;2.70;;;;;;;13.73;46.96;102421.03;691939;28;40810;-54
2021/03/30 00:15:03;;;;;;;4.30;2.60;;;;;;;13.72;47.10;102424.78;694233;28;13958;-57
2021/03/30 00:15:24;;;;;;;3.97;3.00;;;;;;;13.70;46.94;102419.50;691950;28;22518;-56
2021/03/30 00:15:45;;;;;;;3.47;2.92;;;;;;;13.69;46.91;102420.50;692369;28;23382;-52
2021/03/30 00:16:06;;;;;;;3.03;2.72;;;;;;;13.69;46.94;102418.63;689077;28;67461;-57
2021/03/30 00:16:28;;;;;;;3.85;2.67;;;;;;;13.67;47.25;102419.81;690941;28;17371;-56
2021/03/30 00:16:49;;;;;;;4.43;2.60;;;;;;;13.68;47.41;102424.22;690145;28;20087;-56
2021/03/30 00:17:10;;;;;;;3.28;2.90;;;;;;;13.66;46.93;102427.09;690472;28;16393;-56
2021/03/30 00:17:31;;;;;;;4.00;3.10;;;;;;;13.66;47.36;102424.38;689616;28;21549;-55
2021/03/30 00:17:52;;;;;;;3.75;2.90;;;;;;;13.66;47.13;102424.38;690125;28;40250;-56
2021/03/30 00:18:13;;;;;;;3.50;2.85;;;;;;;13.65;47.45;102425.41;691423;28;9719;-54
2021/03/30 00:18:35;;;;;;;3.10;2.80;;;;;;;13.65;47.16;102428.13;691171;28;22396;-55
2021/03/30 00:18:56;;;;;;;3.08;2.85;;;;;;;13.64;47.42;102423.69;690579;28;23501;-54
2021/03/30 00:19:17;;;;;;;4.53;2.80;;;;;;;13.65;47.24;102424.53;690266;28;46184;-57
2021/03/30 00:19:38;;;;;;;4.20;2.78;;;;;;;13.63;47.33;102430.13;691081;28;15753;-58
2021/03/30 00:19:59;;;;;;;3.70;2.63;;;;;;;13.62;46.90;102423.00;691132;28;23537;-53
2021/03/30 00:20:20;;;;;;;4.20;2.72;;;;;;;13.62;46.98;102425.72;691379;28;1930;-56
2021/03/30 00:20:43;;;;;;;3.83;2.90;;;;;;;13.61;47.11;102429.41;690613;28;4495;-56
2021/03/30 00:21:04;;;;;;;3.55;2.83;;;;;;;13.58;46.98;102424.31;691369;28;2865;-54
2021/03/30 00:21:25;;;;;;;4.90;3.17;;;;;;;13.57;47.35;102427.16;689277;28;45253;-56
2021/03/30 00:21:46;;;;;;;4.70;2.92;;;;;;;13.55;47.51;102424.63;691153;28;23449;-55
2021/03/30 00:22:08;;;;;;;3.30;2.75;;;;;;;13.54;47.17;102427.47;690742;28;22476;-54
2021/03/30 00:22:30;;;;;;;4.55;2.83;;;;;;;13.52;47.37;102422.22;688884;28;42063;-56
2021/03/30 00:22:53;;;;;;;3.42;2.75;;;;;;;13.49;47.13;102415.25;691285;28;15073;-54
2021/03/30 00:23:14;;;;;;;4.70;2.67;;;;;;;13.46;47.71;102423.69;691052;28;20416;-54
2021/03/30 00:23:37;;;;;;;3.28;2.78;;;;;;;13.45;47.43;102421.16;689572;28;46465;-55
2021/03/30 00:23:58;;;;;;;4.72;3.00;;;;;;;13.42;47.46;102421.44;689161;28;24603;-56
2021/03/30 00:24:19;;;;;;;4.35;2.80;;;;;;;13.40;47.58;102426.16;690274;28;20818;-57
2021/03/30 00:24:40;;;;;;;3.65;2.70;;;;;;;13.38;47.33;102412.75;690294;28;22214;-57
2021/03/30 00:25:01;;;;;;;3.85;3.00;;;;;;;13.37;47.63;102424.63;690756;28;16213;-56
2021/03/30 00:25:23;;;;;;;5.22;3.00;;;;;;;13.36;47.62;102420.19;691169;28;991;-53
2021/03/30 00:25:44;;;;;;;4.97;2.90;;;;;;;13.37;47.95;102423.75;689158;28;41960;-58
2021/03/30 00:26:05;;;;;;;3.97;2.80;;;;;;;13.35;47.99;102421.19;689689;28;43725;-55
2021/03/30 00:26:27;;;;;;;4.53;3.05;;;;;;;13.34;48.00;102417.63;690979;28;15434;-55
2021/03/30 00:26:48;;;;;;;5.18;2.90;;;;;;;13.33;47.81;102424.06;691441;28;6150;-55
2021/03/30 00:27:09;;;;;;;3.15;2.83;;;;;;;13.35;47.76;102423.91;691535;28;979;-56
2021/03/30 00:27:30;;;;;;;3.15;2.80;;;;;;;13.33;47.72;102425.94;689750;28;21537;-58
2021/03/30 00:27:51;;;;;;;4.68;2.90;;;;;;;13.31;47.77;102420.63;689785;28;16666;-56
2021/03/30 00:28:12;;;;;;;3.95;2.83;;;;;;;13.31;47.98;102419.78;691264;28;17194;-58
2021/03/30 00:28:34;;;;;;;4.65;2.70;;;;;;;13.29;47.80;102422.66;690871;28;17319;-58
2021/03/30 00:28:55;;;;;;;3.97;2.83;;;;;;;13.30;47.89;102424.34;690531;28;14250;-58
2021/03/30 00:29:16;;;;;;;4.90;3.10;;;;;;;13.31;48.11;102425.22;689288;28;22408;-55
2021/03/30 00:29:42;;;;;;;3.55;3.03;;;;;;;13.30;48.10;102423.50;690341;28;22261;-57
2021/03/30 00:30:05;;;;;;;3.72;2.88;;;;;;;13.29;48.11;102422.66;687379;28;125786;-55
2021/03/30 00:30:26;;;;;;;2.88;2.63;;;;;;;13.30;47.79;102424.34;688073;28;86419;-58
2021/03/30 00:30:48;;;;;;;3.42;2.60;;;;;;;13.30;47.67;102423.50;689851;28;22400;-58
2021/03/30 00:31:09;;;;;;;3.15;2.70;;;;;;;13.29;47.82;102422.66;691020;28;14752;-58
2021/03/30 00:31:30;;;;;;;3.72;2.95;;;;;;;13.30;48.05;102420.78;691896;28;913;-57
2021/03/30 00:31:51;;;;;;;4.03;2.90;;;;;;;13.30;48.10;102423.50;690996;28;22482;-58
2021/03/30 00:32:13;;;;;;;3.17;2.78;;;;;;;13.30;47.70;102424.34;691397;28;20867;-56
2021/03/30 00:32:35;;;;;;;6.00;3.20;;;;;;;13.30;47.62;102424.34;691045;28;1360;-53
2021/03/30 00:32:56;;;;;;;4.93;3.10;;;;;;;13.30;47.70;102423.50;690847;28;21554;-54
2021/03/30 00:33:18;;;;;;;3.50;3.10;;;;;;;13.29;47.87;102422.66;691576;28;22361;-55
2021/03/30 00:33:39;;;;;;;4.22;3.03;;;;;;;13.29;47.74;102425.38;690806;28;38466;-54
2021/03/30 00:34:00;;;;;;;4.45;2.88;;;;;;;13.29;48.13;102421.78;691783;28;1662;-56
2021/03/30 00:34:22;;;;;;;5.28;3.10;;;;;;;13.29;47.90;102422.66;690333;28;23443;-56
2021/03/30 00:34:43;;;;;;;4.55;3.15;;;;;;;13.29;48.15;102427.19;690158;28;45336;-55
2021/03/30 00:35:05;;;;;;;4.38;3.22;;;;;;;13.29;47.90;102424.50;690785;28;22157;-56
2021/03/30 00:35:26;;;;;;;3.70;2.80;;;;;;;13.29;47.71;102425.38;689223;28;40550;-57
2021/03/30 00:35:48;;;;;;;4.47;2.80;;;;;;;13.30;47.61;102423.50;690392;28;23442;-55
2021/03/30 00:36:09;;;;;;;4.20;2.97;;;;;;;13.28;48.03;102423.66;690096;28;4523;-56
2021/03/30 00:36:30;;;;;;;3.05;2.75;;;;;;;13.29;47.80;102422.66;691459;28;23410;-58
2021/03/30 00:36:52;;;;;;;4.75;2.97;;;;;;;13.28;47.73;102420.94;690856;28;22413;-56
2021/03/30 00:37:14;;;;;;;4.45;2.95;;;;;;;13.28;47.99;102423.66;689900;28;43677;-56
2021/03/30 00:37:36;;;;;;;3.10;2.80;;;;;;;13.28;48.13;102426.34;690377;28;43768;-57
2021/03/30 00:37:58;;;;;;;2.95;2.63;;;;;;;13.27;47.63;102421.94;690881;28;43439;-54
2021/03/30 00:38:19;;;;;;;3.15;2.55;;;;;;;13.27;48.12;102424.63;690487;28;22501;-58
2021/03/30 00:38:40;;;;;;;3.28;2.92;;;;;;;13.26;47.98;102420.25;688208;28;22527;-57
2021/03/30 00:39:02;;;;;;;2.80;2.60;;;;;;;13.26;47.72;102433.81;687432;28;38724;-56
2021/03/30 00:39:23;;;;;;;3.30;2.78;;;;;;;13.26;48.13;102422.09;688656;28;22508;-55
2021/03/30 00:39:44;;;;;;;4.05;3.28;;;;;;;13.24;47.69;102422.22;688448;28;23450;-57
2021/03/30 00:40:07;;;;;;;4.45;3.05;;;;;;;13.26;48.12;102430.22;688704;28;22150;-57
2021/03/30 00:40:28;;;;;;;3.53;2.80;;;;;;;13.24;47.90;102422.22;687292;28;91035;-53
2021/03/30 00:40:52;;;;;;;3.05;2.75;;;;;;;13.26;48.24;102422.09;693937;28;2093;-55
2021/03/30 00:41:14;;;;;;;3.75;2.83;;;;;;;13.24;47.93;102421.38;694149;28;1184;-53
2021/03/30 00:41:39;;;;;;;3.65;2.95;;;;;;;13.21;48.15;102425.25;693175;28;42754;-54
2021/03/30 00:42:00;;;;;;;3.03;2.70;;;;;;;13.21;47.97;102424.41;691020;28;110008;-51
2021/03/30 00:42:24;;;;;;;4.53;3.27;;;;;;;13.20;48.07;102425.41;690514;28;1770;-56
2021/03/30 00:42:45;;;;;;;5.53;3.42;;;;;;;13.20;48.02;102422.69;688762;28;92377;-57
2021/03/30 00:43:07;;;;;;;2.88;2.67;;;;;;;13.20;48.13;102428.13;690336;28;33992;-56
2021/03/30 00:43:29;;;;;;;3.17;2.85;;;;;;;13.20;48.24;102423.56;691345;28;24180;-56
2021/03/30 00:43:50;;;;;;;3.83;2.97;;;;;;;13.19;48.51;102416.44;691633;28;889;-56
2021/03/30 00:44:12;;;;;;;4.20;3.10;;;;;;;13.20;48.34;102428.13;690917;28;23505;-57
2021/03/30 00:44:33;;;;;;;3.58;3.00;;;;;;;13.20;48.65;102423.56;690180;28;45267;-55
2021/03/30 00:44:56;;;;;;;3.38;2.92;;;;;;;13.19;48.37;102421.84;691501;28;22406;-55
2021/03/30 00:45:18;;;;;;;3.80;2.97;;;;;;;13.20;48.08;102423.56;689399;28;69283;-54
2021/03/30 00:45:39;;;;;;;4.60;2.90;;;;;;;13.19;48.37;102427.28;690426;28;23477;-58
2021/03/30 00:46:00;;;;;;;5.18;3.08;;;;;;;13.17;48.09;102421.16;690445;28;22389;-53
2021/03/30 00:46:22;;;;;;;3.23;2.93;;;;;;;13.16;47.93;102425.75;690059;28;46581;-56
2021/03/30 00:46:44;;;;;;;3.58;3.28;;;;;;;13.15;47.89;102423.19;689723;28;46471;-57
2021/03/30 00:47:06;;;;;;;3.15;2.95;;;;;;;13.14;48.36;102430.44;689554;28;69097;-55
2021/03/30 00:47:28;;;;;;;3.20;2.92;;;;;;;13.14;48.37;102435.03;690653;28;21570;-57
2021/03/30 00:47:50;;;;;;;3.47;2.90;;;;;;;13.13;48.18;102425.16;688538;28;67497;-54
2021/03/30 00:48:19;;;;;;;3.30;2.95;;;;;;;13.11;47.89;102432.63;690551;28;21501;-54
2021/03/30 00:48:41;;;;;;;4.03;3.05;;;;;;;13.09;48.39;102431.94;686170;28;159233;-52
2021/03/30 00:49:03;;;;;;;3.67;3.17;;;;;;;13.08;48.54;102435.63;688760;28;69545;-55
2021/03/30 00:49:24;;;;;;;3.80;3.03;;;;;;;13.05;48.42;102431.34;690890;28;1285;-57
2021/03/30 00:49:47;;;;;;;3.25;2.95;;;;;;;13.05;48.32;102428.66;688310;28;43691;-54
2021/03/30 00:50:10;;;;;;;3.28;3.03;;;;;;;13.04;48.52;102432.38;688772;28;46377;-54
2021/03/30 00:50:33;;;;;;;5.05;3.15;;;;;;;13.03;48.58;102427.94;688279;28;59091;-56
2021/03/30 00:51:01;;;;;;;3.20;2.80;;;;;;;13.02;48.21;102430.81;686172;28;137585;-57
2021/03/30 00:51:58;;;;;;;3.22;2.97;;;;;;;12.99;48.26;102426.53;676245;29;134561;-52
2021/03/30 00:52:43;;;;;;;3.63;3.33;;;;;;;12.98;48.31;102422.97;676324;29;135985;-54
2021/03/30 00:53:23;;;;;;;3.80;3.50;;;;;;;12.98;48.83;102430.28;673990;29;138616;-53
2021/03/30 00:54:04;;;;;;;4.75;3.58;;;;;;;12.95;48.71;102430.56;673959;29;137086;-54
2021/03/30 00:54:31;;;;;;;3.72;3.33;;;;;;;12.94;48.98;102420.72;671821;29;122822;-57
2021/03/30 00:55:00;;;;;;;3.80;3.35;;;;;;;12.94;48.84;102431.56;683430;28;160817;-57
2021/03/30 00:55:21;;;;;;;5.47;3.58;;;;;;;12.93;48.56;102427.16;687540;28;45209;-56
2021/03/30 00:55:44;;;;;;;4.25;3.63;;;;;;;12.91;48.69;102432.72;685144;28;69078;-55
2021/03/30 00:56:06;;;;;;;4.30;3.80;;;;;;;12.92;48.77;102426.31;687014;28;45261;-53
2021/03/30 00:56:27;;;;;;;3.55;3.25;;;;;;;12.91;48.81;102438.13;689896;28;21294;-55
2021/03/30 00:56:48;;;;;;;4.30;3.38;;;;;;;12.92;49.07;102430.88;692153;28;22449;-55
2021/03/30 00:57:09;;;;;;;5.22;3.40;;;;;;;12.91;48.81;102437.31;693946;28;22442;-57
2021/03/30 00:57:31;;;;;;;5.70;3.80;;;;;;;12.90;49.04;102432.88;692789;28;22461;-57
2021/03/30 00:57:52;;;;;;;4.68;3.50;;;;;;;12.89;48.66;102426.59;690657;28;45230;-55
2021/03/30 00:58:13;;;;;;;3.92;3.50;;;;;;;12.89;48.81;102426.59;690849;28;18202;-55
2021/03/30 00:58:35;;;;;;;4.20;3.77;;;;;;;12.90;49.15;102427.44;690801;28;31072;-55
2021/03/30 00:58:56;;;;;;;5.40;3.72;;;;;;;12.90;48.77;102424.72;689931;28;44463;-55
2021/03/30 00:59:18;;;;;;;3.70;3.40;;;;;;;12.90;48.61;102432.88;691315;28;20904;-55
2021/03/30 00:59:40;;;;;;;4.95;3.28;;;;;;;12.90;48.54;102427.44;690042;28;40911;-58
2021/03/30 01:00:01;;;;;;;4.60;3.50;;;;;;;12.91;48.95;102426.44;690699;28;22581;-54
2021/03/30 01:00:24;;;;;;;3.75;3.45;;;;;;;12.92;48.65;102431.72;691348;28;23449;-54
2021/03/30 01:00:45;;;;;;;4.45;3.50;;;;;;;12.92;48.60;102428.16;688901;28;67545;-56
2021/03/30 01:01:06;;;;;;;5.82;3.42;;;;;;;12.92;48.58;102431.72;691935;28;12044;-53
2021/03/30 01:01:27;;;;;;;4.90;3.63;;;;;;;12.91;48.80;102430.00;690873;28;20282;-55
2021/03/30 01:01:48;;;;;;;4.35;3.55;;;;;;;12.92;48.94;102429.00;691338;28;21786;-58
2021/03/30 01:02:10;;;;;;;3.90;3.50;;;;;;;12.91;48.58;102429.16;691706;28;12836;-55
2021/03/30 01:02:31;;;;;;;3.50;3.20;;;;;;;12.90;48.92;102436.47;690471;28;37094;-55
2021/03/30 01:02:52;;;;;;;4.13;3.28;;;;;;;12.91;49.19;102434.59;690938;28;20543;-57
2021/03/30 01:03:13;;;;;;;3.85;3.47;;;;;;;12.91;49.07;102427.28;690486;28;22478;-57
2021/03/30 01:03:35;;;;;;;3.65;3.35;;;;;;;12.93;48.96;102438.00;690936;28;22166;-56
2021/03/30 01:03:56;;;;;;;3.75;3.38;;;;;;;12.92;48.57;102426.31;689993;28;37597;-56
2021/03/30 01:04:17;;;;;;;3.92;3.53;;;;;;;12.93;48.56;102429.84;691110;28;22642;-55
2021/03/30 01:04:38;;;;;;;3.83;3.30;;;;;;;12.91;48.53;102429.16;691146;28;19828;-56
2021/03/30 01:05:00;;;;;;;6.53;3.70;;;;;;;12.89;48.58;102432.03;690582;28;12599;-56
2021/03/30 01:05:26;;;;;;;6.07;3.53;;;;;;;12.90;48.63;102436.47;687973;28;118916;-57
2021/03/30 01:05:47;;;;;;;4.68;3.42;;;;;;;12.91;48.99;102431.88;688900;28;22431;-53
2021/03/30 01:06:08;;;;;;;3.58;3.08;;;;;;;12.90;48.52;102430.16;690553;28;22496;-56
2021/03/30 01:06:30;;;;;;;6.07;3.00;;;;;;;12.90;48.92;102431.03;688957;28;1764;-55
2021/03/30 01:06:51;;;;;;;3.70;2.80;;;;;;;12.90;48.70;102433.75;688444;28;19045;-56
2021/03/30 01:07:12;;;;;;;4.80;2.90;;;;;;;12.88;48.80;102430.31;689228;28;2025;-55
2021/03/30 01:07:34;;;;;;;4.03;3.10;;;;;;;12.86;48.87;102432.31;690978;28;23268;-56
2021/03/30 01:08:08;;;;;;;3.53;3.22;;;;;;;12.84;49.15;102430.78;690220;28;46391;-56
2021/03/30 01:08:41;;;;;;;4.97;4.40;;;;;;;12.82;48.94;102428.22;686658;28;124922;-56
2021/03/30 01:09:14;;;;;;;4.28;3.83;;;;;;;12.82;49.22;102430.06;688721;28;61355;-56
2021/03/30 01:09:44;;;;;;;6.05;4.10;;;;;;;12.80;48.89;102432.94;689873;28;61078;-54
2021/03/30 01:10:16;;;;;;;6.30;3.58;;;;;;;12.78;49.20;102429.53;686132;28;137730;-55
2021/03/30 01:10:44;;;;;;;4.35;3.47;;;;;;;12.77;48.89;102427.81;686971;28;138796;-57
2021/03/30 01:11:09;;;;;;;4.93;3.47;;;;;;;12.76;49.35;102426.97;686959;28;137959;-56
2021/03/30 01:11:39;;;;;;;4.00;3.38;;;;;;;12.76;48.98;102432.38;687405;28;137996;-54
2021/03/30 01:12:14;;;;;;;3.92;3.47;;;;;;;12.74;48.92;102431.69;687124;28;138723;-53
2021/03/30 01:12:46;;;;;;;4.35;3.60;;;;;;;12.74;49.13;102430.81;687108;28;131437;-54
2021/03/30 01:13:19;;;;;;;3.80;3.13;;;;;;;12.72;49.13;102430.13;687479;28;137754;-55
2021/03/30 01:13:54;;;;;;;5.15;3.80;;;;;;;12.72;49.29;102432.84;687473;28;133199;-57
2021/03/30 01:14:39;;;;;;;5.85;3.85;;;;;;;12.69;49.40;102436.69;686421;28;160294;-56
2021/03/30 01:15:05;;;;;;;5.65;3.85;;;;;;;12.68;49.61;102440.41;687258;28;137745;-56
2021/03/30 01:15:33;;;;;;;5.03;3.65;;;;;;;12.68;49.37;102434.13;688573;28;93850;-57
2021/03/30 01:15:59;;;;;;;4.35;3.95;;;;;;;12.66;49.21;102434.28;686360;28;135672;-58
2021/03/30 01:16:24;;;;;;;4.03;3.58;;;;;;;12.66;49.20;102436.97;689000;28;82365;-57
2021/03/30 01:16:49;;;;;;;4.03;3.63;;;;;;;12.67;49.19;102436.00;689542;28;92691;-52
2021/03/30 01:17:19;;;;;;;4.35;3.95;;;;;;;12.67;49.84;102438.69;688588;28;116264;-51
2021/03/30 01:17:44;;;;;;;4.50;3.53;;;;;;;12.67;49.34;102437.84;685362;28;100702;-56
2021/03/30 01:18:12;;;;;;;4.32;3.60;;;;;;;12.66;49.81;102436.97;684691;28;110829;-51
2021/03/30 01:18:37;;;;;;;5.03;3.50;;;;;;;12.64;49.40;102447.13;684332;28;153352;-54
2021/03/30 01:19:03;;;;;;;5.97;3.83;;;;;;;12.61;49.52;102437.44;687165;28;115108;-58
2021/03/30 01:19:41;;;;;;;4.65;3.72;;;;;;;12.58;49.84;102440.44;687092;28;139176;-55
2021/03/30 01:20:41;;;;;;;4.18;3.35;;;;;;;12.55;49.77;102443.44;687022;28;137775;-52
2021/03/30 01:21:36;;;;;;;4.30;3.90;;;;;;;12.53;50.18;102444.63;669614;29;134877;-55
2021/03/30 01:22:30;;;;;;;4.68;3.67;;;;;;;12.53;50.06;102441.91;687178;28;129637;-53
2021/03/30 01:23:09;;;;;;;6.97;4.82;;;;;;;12.53;50.21;102441.91;672444;28;133166;-56
2021/03/30 01:23:41;;;;;;;7.47;5.15;;;;;;;12.50;50.18;102439.50;679514;28;161241;-53
2021/03/30 01:24:05;;;;;;;10.50;6.00;;;;;;;12.50;49.91;102443.03;685553;28;133324;-52
2021/03/30 01:24:30;;;;;;;9.35;6.22;;;;;;;12.48;50.25;102441.50;689375;28;61061;-57
2021/03/30 01:24:54;;;;;;;8.55;6.03;;;;;;;12.46;50.21;102443.47;688213;28;97364;-56
2021/03/30 01:25:16;;;;;;;9.18;5.60;;;;;;;12.44;49.91;102440.91;687892;28;113234;-53
2021/03/30 01:25:39;;;;;;;9.18;5.43;;;;;;;12.44;50.23;102446.34;690713;28;1743;-58
2021/03/30 01:26:06;;;;;;;7.97;5.13;;;;;;;12.44;50.35;102446.34;689524;28;69236;-56
2021/03/30 01:26:58;;;;;;;7.95;5.20;;;;;;;12.43;50.32;102437.38;687902;28;129159;-54
2021/03/30 01:27:25;;;;;;;7.43;5.20;;;;;;;12.46;50.26;102446.19;686821;28;138427;-52
2021/03/30 01:27:56;;;;;;;7.53;5.20;;;;;;;12.47;50.36;102442.50;687339;28;135927;-57
2021/03/30 01:28:23;;;;;;;8.23;5.55;;;;;;;12.46;50.23;102440.78;686588;28;137777;-55
2021/03/30 01:28:56;;;;;;;7.90;5.55;;;;;;;12.47;49.74;102443.34;687081;28;132092;-54
2021/03/30 01:29:22;;;;;;;7.50;5.60;;;;;;;12.47;49.91;102439.78;687073;28;137605;-54
2021/03/30 01:29:48;;;;;;;6.35;4.70;;;;;;;12.44;50.27;102439.09;687459;28;137336;-55
2021/03/30 01:30:11;;;;;;;5.60;4.22;;;;;;;12.44;50.33;102444.50;686344;28;138391;-55
2021/03/30 01:30:33;;;;;;;5.95;4.68;;;;;;;12.44;50.10;102446.34;689175;28;70398;-55
2021/03/30 01:30:55;;;;;;;6.80;4.95;;;;;;;12.42;50.14;102440.22;690237;28;39728;-54
2021/03/30 01:31:17;;;;;;;7.63;5.32;;;;;;;12.39;50.59;102448.66;690852;28;28694;-55
2021/03/30 01:31:39;;;;;;;5.97;4.90;;;;;;;12.37;50.16;102443.38;691120;28;24837;-53
2021/03/30 01:32:00;;;;;;;4.60;4.20;;;;;;;12.35;50.45;102439.97;689440;28;69423;-57
2021/03/30 01:32:26;;;;;;;4.40;3.97;;;;;;;12.34;50.75;102443.66;690735;28;22380;-52
2021/03/30 01:32:51;;;;;;;5.95;4.55;;;;;;;12.34;50.14;102448.25;687121;28;138060;-53
2021/03/30 01:33:15;;;;;;;6.90;4.20;;;;;;;12.33;50.59;102443.81;687990;28;111530;-55
2021/03/30 01:33:37;;;;;;;6.75;4.25;;;;;;;12.32;50.58;102439.38;688701;28;92580;-57
2021/03/30 01:34:00;;;;;;;5.57;4.30;;;;;;;12.32;50.39;102448.38;690318;28;46392;-51
2021/03/30 01:34:23;;;;;;;6.10;4.15;;;;;;;12.33;50.63;102436.53;689671;28;68360;-54
2021/03/30 01:34:46;;;;;;;4.93;3.90;;;;;;;12.33;50.10;102441.94;690700;28;43630;-52
2021/03/30 01:35:09;;;;;;;5.35;4.07;;;;;;;12.33;50.14;102441.94;692099;28;1720;-54
2021/03/30 01:35:31;;;;;;;5.57;4.38;;;;;;;12.34;50.17;102446.38;686645;28;92122;-55
2021/03/30 01:35:54;;;;;;;4.90;4.05;;;;;;;12.32;50.24;102442.09;689816;28;48172;-51
2021/03/30 01:36:17;;;;;;;6.00;4.72;;;;;;;12.32;50.61;102440.25;690090;28;64209;-55
2021/03/30 01:36:41;;;;;;;4.70;4.18;;;;;;;12.33;50.35;102439.25;692397;28;13901;-53
2021/03/30 01:37:03;;;;;;;4.50;3.90;;;;;;;12.32;50.79;102444.81;691814;28;69506;-53
2021/03/30 01:37:25;;;;;;;4.57;3.88;;;;;;;12.31;50.57;102435.00;691221;28;69506;-55
2021/03/30 01:37:47;;;;;;;4.97;3.85;;;;;;;12.30;50.64;102441.41;692413;28;45240;-55
2021/03/30 01:38:11;;;;;;;5.68;4.03;;;;;;;12.27;50.78;102437.13;694184;28;3930;-57
2021/03/30 01:38:32;;;;;;;5.75;3.95;;;;;;;12.27;50.84;102445.25;690241;28;115155;-55
2021/03/30 01:38:55;;;;;;;5.05;4.00;;;;;;;12.26;50.51;102444.41;693146;28;21327;-59
2021/03/30 01:39:17;;;;;;;5.88;4.10;;;;;;;12.26;50.57;102438.13;692748;28;44429;-54
2021/03/30 01:39:39;;;;;;;4.25;3.85;;;;;;;12.25;50.90;102439.13;691865;28;67464;-51
2021/03/30 01:40:00;;;;;;;4.40;3.78;;;;;;;12.23;50.84;102436.56;694430;28;905;-56
2021/03/30 01:40:24;;;;;;;6.75;4.28;;;;;;;12.22;51.03;102436.72;693316;28;44380;-53
2021/03/30 01:40:46;;;;;;;5.97;4.35;;;;;;;12.20;50.75;102436.84;690864;28;92292;-55
2021/03/30 01:41:08;;;;;;;5.78;4.10;;;;;;;12.20;50.95;102439.56;693648;28;22398;-55
2021/03/30 01:41:30;;;;;;;4.25;3.85;;;;;;;12.20;50.70;102436.84;693298;28;41504;-55
2021/03/30 01:41:51;;;;;;;4.55;3.83;;;;;;;12.20;50.89;102438.72;693893;28;17296;-53
2021/03/30 01:42:13;;;;;;;5.20;3.90;;;;;;;12.20;50.73;102446.84;693430;28;22425;-57
2021/03/30 01:42:34;;;;;;;6.10;3.80;;;;;;;12.19;51.22;102440.56;692806;28;46323;-53
2021/03/30 01:42:55;;;;;;;6.05;4.00;;;;;;;12.19;51.32;102437.00;694006;28;1618;-55
2021/03/30 01:43:17;;;;;;;6.30;4.20;;;;;;;12.18;51.17;102444.28;693577;28;24306;-55
2021/03/30 01:43:42;;;;;;;5.20;4.20;;;;;;;12.16;51.33;102438.16;693464;28;14992;-54
2021/03/30 01:44:06;;;;;;;4.85;4.18;;;;;;;12.15;51.21;102439.16;692121;28;44161;-55
2021/03/30 01:44:29;;;;;;;5.00;4.18;;;;;;;12.13;51.12;102435.75;690290;28;113693;-58
2021/03/30 01:44:54;;;;;;;6.72;4.60;;;;;;;12.13;51.12;102441.16;691700;28;63028;-54
2021/03/30 01:45:16;;;;;;;6.15;4.28;;;;;;;12.12;51.13;102442.16;690046;28;910;-54
2021/03/30 01:45:37;;;;;;;5.13;3.90;;;;;;;12.11;51.35;102445.00;687295;28;69445;-56
2021/03/30 01:45:59;;;;;;;5.55;3.90;;;;;;;12.08;51.45;102438.91;688660;28;37195;-53
2021/03/30 01:46:20;;;;;;;6.72;3.90;;;;;;;12.07;51.42;102439.03;689642;28;22386;-57
2021/03/30 01:46:41;;;;;;;5.50;4.13;;;;;;;12.06;51.77;102435.44;689619;28;22500;-56
2021/03/30 01:47:04;;;;;;;4.53;4.10;;;;;;;12.03;51.65;102440.31;693510;28;965;-57
2021/03/30 01:47:27;;;;;;;5.57;4.28;;;;;;;12.03;51.65;102440.31;692369;28;45355;-54
2021/03/30 01:47:50;;;;;;;5.72;4.20;;;;;;;12.02;51.79;102439.47;691614;28;67529;-55
2021/03/30 01:48:11;;;;;;;7.28;3.88;;;;;;;12.01;51.97;102439.63;692968;28;57827;-55
2021/03/30 01:48:33;;;;;;;6.72;3.80;;;;;;;11.99;51.87;102437.06;693160;28;30705;-53
2021/03/30 01:48:54;;;;;;;4.75;3.70;;;;;;;11.99;51.94;102433.47;693393;28;23396;-55
2021/03/30 01:49:17;;;;;;;5.25;4.00;;;;;;;11.97;51.77;102436.31;694260;28;5868;-55
2021/03/30 01:49:39;;;;;;;4.80;3.53;;;;;;;11.97;51.96;102438.19;691580;28;69612;-55
2021/03/30 01:50:01;;;;;;;3.83;3.53;;;;;;;11.98;51.89;102439.91;693580;28;27236;-53
2021/03/30 01:50:23;;;;;;;4.18;3.80;;;;;;;11.97;52.00;102430.06;693218;28;46481;-58
2021/03/30 01:50:45;;;;;;;4.82;3.70;;;;;;;11.97;52.00;102438.19;692160;28;44133;-55
2021/03/30 01:51:06;;;;;;;5.35;3.70;;;;;;;11.96;51.59;102436.47;692952;28;45618;-57
2021/03/30 01:51:29;;;;;;;5.22;3.70;;;;;;;11.94;51.62;102433.91;693347;28;22537;-56
2021/03/30 01:51:50;;;;;;;4.30;3.90;;;;;;;11.93;52.01;102432.22;691907;28;62195;-56